Terminal Aerodrome Forecast
Issued by NWS Shreveport, LA

Home | Current Version | Previous Version | Text Only | Print | Product List | Glossary On
Versions: 1 2 3 4 5 6 7 8 9 10 11 12 13
000
FTUS44 KSHV 030551
TAFLFK
TAF
KLFK 030551Z 0306/0406 06011KT 5SM -RA BR FEW005 BKN035 OVC060
     FM031200 09011KT 4SM RA BR OVC009
     FM031500 07012KT 4SM -RA BR OVC007
     FM031800 07013KT 2SM -RA BR OVC004
     FM040000 04010KT 1 1/2SM -RA BR OVC007=

USA.gov is the U.S. government's official web portal to all federal, state and local government web resources and services.